CDT,Max TemperatureF,Mean TemperatureF,Min TemperatureF,Max Dew PointF,MeanDew PointF,Min DewpointF,Max Humidity, Mean Humidity, Min Humidity, Max Sea Level PressureIn, Mean Sea Level PressureIn, Min Sea Level PressureIn, Max VisibilityMiles, Mean VisibilityMiles, Min VisibilityMiles, Max Wind SpeedMPH, Mean Wind SpeedMPH, Max Gust SpeedMPH,PrecipitationIn, CloudCover, Events, WindDirDegrees
2014-4-1,84,68,51,62,54,41,93,62,31,29.94,29.83,29.73,10,9,6,24,10,32,0.00,4,,141
2014-4-2,84,77,69,65,63,62,84,68,51,29.73,29.66,29.57,10,10,7,26,18,31,0.00,4,,177
2014-4-3,85,66,47,66,45,8,90,49,8,29.99,29.64,29.56,10,9,7,43,16,49,0.00,1,,264
2014-4-4,67,51,35,33,29,25,85,53,20,30.20,30.11,30.03,10,10,10,21,8,25,0.00,1,,17
2014-4-5,59,52,45,45,33,25,80,54,28,30.12,30.03,29.93,10,10,8,21,11,26,0.02,4,Rain,100
2014-4-6,50,47,44,48,45,39,100,86,71,29.96,29.87,29.76,10,8,3,22,8,30,0.51,8,Rain,91
2014-4-7,68,58,47,49,46,39,100,74,48,30.04,29.88,29.82,10,8,3,31,7,45,0.09,6,Rain-Thunderstorm,314
2014-4-8,73,59,44,41,34,29,71,46,20,30.19,30.11,30.04,10,10,10,28,14,35,0.00,0,,339
2014-4-9,86,65,43,39,36,32,71,43,14,30.15,30.05,29.89,10,10,10,24,13,35,0.00,0,,172
2014-4-10,92,76,59,47,42,37,56,37,18,29.86,29.78,29.70,10,10,10,25,14,30,0.00,3,,198
2014-4-11,85,68,51,61,50,45,83,55,27,29.92,29.84,29.77,10,10,10,17,8,20,0.00,1,,168
2014-4-12,88,75,62,60,59,56,90,63,35,29.82,29.71,29.59,10,10,10,29,20,39,0.00,0,,165
2014-4-13,93,70,47,63,52,17,78,43,7,29.81,29.57,29.41,10,10,8,37,24,46,T,2,Rain,193
2014-4-14,57,47,37,35,26,17,65,46,26,30.31,30.11,29.87,10,10,10,36,22,45,0.00,6,,354
2014-4-15,65,49,32,23,16,12,52,33,13,30.32,30.21,30.02,10,10,10,18,9,23,0.00,0,,231
2014-4-16,73,59,45,41,29,24,64,42,19,30.00,29.93,29.82,10,10,10,31,19,37,0.00,1,,157
2014-4-17,67,56,44,54,50,41,93,76,58,30.21,30.11,29.96,10,8,2,18,9,22,0.06,6,Rain,109
2014-4-18,73,61,49,52,50,45,93,70,47,30.25,30.18,30.09,10,8,5,12,6,15,0.00,5,,100
2014-4-19,79,65,51,51,50,46,89,63,37,30.14,30.08,30.02,10,10,8,18,12,27,0.00,1,,156
2014-4-20,69,65,60,61,57,51,97,80,63,30.09,30.03,29.98,10,9,2,22,10,26,0.39,5,Rain,146
2014-4-21,81,71,61,64,61,56,100,73,45,30.03,29.96,29.91,10,8,2,29,9,35,0.34,6,Rain,164
2014-4-22,80,68,55,58,55,51,93,65,36,30.09,30.00,29.89,10,10,7,13,7,18,0.00,0,,54
2014-4-23,88,72,56,62,57,53,86,61,36,29.90,29.76,29.60,10,10,9,33,17,43,0.07,2,,158
2014-4-24,80,69,57,62,50,36,87,55,22,29.93,29.76,29.61,10,10,5,35,15,44,0.00,0,,336
2014-4-25,85,67,48,45,42,37,71,47,23,30.00,29.89,29.76,10,10,10,25,14,31,0.00,0,,145
2014-4-26,90,75,60,65,56,44,73,53,32,29.75,29.62,29.49,10,10,7,31,18,38,0.00,0,,160
2014-4-27,85,76,67,67,42,18,84,46,8,29.49,29.43,29.34,10,8,6,36,20,46,0.01,3,,222
2014-4-28,79,67,55,41,34,21,55,35,14,29.69,29.59,29.45,10,9,6,30,11,37,0.00,2,,301
2014-4-29,70,61,52,41,33,28,51,37,22,29.99,29.85,29.69,10,10,10,36,18,47,0.00,3,,323
2014-4-30,68,57,45,34,26,20,65,42,18,30.20,30.12,30.01,10,10,10,26,16,41,0.00,0,,330